Terminal Aerodrome Forecast
Issued by NWS Spokane, WA

Home | Current Version | Previous Version | Text Only | Print | Product List | Glossary On
Versions: 1 2 3 4 5 6 7 8 9 10 11 12 13 14 15 16 17 18 19 20 21 22 23 24 25 26 27 28 29 30 31 32
000
FTUS46 KOTX 221127
TAFLWS
TAF
KLWS 221127Z 2212/2312 00000KT P6SM VCSH SCT100 BKN200
     FM222000 30007KT P6SM VCTS SCT070CB BKN100
     FM230300 23005KT P6SM VCSH SCT070 BKN120
     FM230600 VRB03KT P6SM SCT100 SCT200=

USA.gov is the U.S. government's official web portal to all federal, state and local government web resources and services.